Masset Airport
CZMT : rendu visible

Aérodrome :











RETROUVEZ-NOUS SUR...

 
LOGIN :

S'inscrire | Disclaimer

   EN    FR    IT 

 









Légende :    VFR   VFR Marginal   IFR   IFR Intensif   IFR Très Intensif
Visi : 
Plafond : 
>= 8 km
>= 3000ft
5 à 8 km
1000 à 3000 ft
1500m à 5 km
500 à 1000 ft
800 à 1500m
200 à 500 ft
< 800m
< 200 ft
Symboles :   Orages  Brouillard  Fortes neiges  Fortes précipitations  Vent > 20 kt






- Altitude de l'aérodrome : 25 ft
- Code IATA : ZMT


CZMT - Masset

DERNIER METAR :
  • 122300Z 20005KT 160V250 10SM -SHRA SCT020TCU BKN040 11/10 A2985 RMK TCU4SC3 SLP110

METARs EXPIRÉS :
  • 122250Z 21005KT 170V260 10SM -SHRA SCT020TCU BKN040 12/10 A2984 RMK TCU4SC3 SLP107
  • 122200Z 19006KT 15SM SCT030 BKN100 12/10 A2983 RMK SC4AC3 SLP103
  • 122100Z 18007KT 15SM SCT030 BKN100 11/10 A2981 RMK SC4AC3 SLP095

TAF TAF CZMT
Valide du 12 à 19h jusqu'au 13 à 02h UTC


121838Z 1219/1302 17010KT P6SM SCT015 BKN040
TEMPO 1219/1302 3SM -SHRA BR SCT008 OVC015 RMK NXT FCST WILL BE ISSUED AT 131615Z



MET'MAP, la Météo Aéronautique d'un coup d'oeil ! - Copyright ORBIFLY Décembre 2007 - Disclaimer

ORBIFLY MET'MAP TEAM :

Programmation & Développement : Alexandra Zaïnal
Conception & Développement : Baudouin d'Aumeries
Co-Programmation & Développement : Marc-Olivier Méhu
Soutien technique & logistique : Manuel Goepfert

Contact : metmap@orbifly.com




SOURCES & CREDITS :

   NOAA       Earth
Advisory